createdAt,value
2019-04-03T00:00:35.595Z,67.05
2019-04-03T00:03:06.823Z,67.75
2019-04-03T00:05:38.050Z,68.43
2019-04-03T00:08:09.405Z,67.21
2019-04-03T00:10:40.691Z,67.91
2019-04-03T00:13:11.869Z,68.79
2019-04-03T00:15:44.626Z,69.53
2019-04-03T00:18:16.857Z,68.84
2019-04-03T00:20:48.819Z,69.63
2019-04-03T00:23:22.361Z,69.91
2019-04-03T00:25:54.444Z,69.55
2019-04-03T00:28:25.773Z,68.96
2019-04-03T00:30:57.544Z,68.74
2019-04-03T00:33:28.891Z,68.99
2019-04-03T00:36:00.286Z,68.83
2019-04-03T00:38:31.511Z,69.28
2019-04-03T00:41:02.992Z,69.56
2019-04-03T00:43:34.196Z,69.37
2019-04-03T00:46:06.137Z,68.86
2019-04-03T00:48:37.364Z,68.97
2019-04-03T00:51:08.843Z,68.89
2019-04-03T00:53:39.999Z,68.49
2019-04-03T00:56:11.395Z,68.64
2019-04-03T00:58:44.641Z,68.45
2019-04-03T01:01:15.879Z,68.27
2019-04-03T01:03:47.151Z,68.05
2019-04-03T01:06:18.460Z,67.62
2019-04-03T01:08:49.609Z,67.93
2019-04-03T01:11:20.911Z,68.09
2019-04-03T01:13:52.591Z,68.93
2019-04-03T01:16:23.880Z,69.40
2019-04-03T01:18:55.030Z,69.57
2019-04-03T01:21:26.393Z,69.20
2019-04-03T01:23:57.997Z,69.37
2019-04-03T01:26:29.483Z,69.58
2019-04-03T01:29:00.729Z,70.06
2019-04-03T01:31:32.058Z,70.41
2019-04-03T01:34:06.474Z,71.09
2019-04-03T01:36:37.714Z,71.85
2019-04-03T01:39:09.405Z,72.13
2019-04-03T01:41:40.589Z,72.30
2019-04-03T01:44:12.123Z,72.43
2019-04-03T01:46:43.350Z,72.67
2019-04-03T01:49:14.815Z,71.79
2019-04-03T01:51:46.360Z,71.87
2019-04-03T01:54:17.674Z,72.60
2019-04-03T01:56:49.084Z,73.40
2019-04-03T01:59:20.688Z,74.05
2019-04-03T02:01:52.224Z,74.91
2019-04-03T02:04:23.628Z,74.78
2019-04-03T02:06:55.212Z,74.29
2019-04-03T02:09:26.724Z,74.74
2019-04-03T02:11:58.305Z,74.80
2019-04-03T02:14:29.888Z,73.39
2019-04-03T02:17:01.067Z,73.53
2019-04-03T02:19:32.679Z,73.33
2019-04-03T02:22:03.967Z,72.89
2019-04-03T02:24:35.222Z,72.07
2019-04-03T02:27:07.014Z,72.69
2019-04-03T02:29:39.855Z,73.18
2019-04-03T02:32:11.771Z,74.38
2019-04-03T02:34:43.164Z,74.20
2019-04-03T02:37:16.978Z,74.21
2019-04-03T02:39:48.200Z,75.16
2019-04-03T02:42:20.182Z,75.07
2019-04-03T02:44:51.914Z,75.75
2019-04-03T02:47:23.848Z,75.50
2019-04-03T02:49:55.242Z,75.51
2019-04-03T02:52:27.715Z,74.40
2019-04-03T02:54:59.375Z,74.63
2019-04-03T02:57:30.902Z,74.39
2019-04-03T03:00:02.679Z,73.75
2019-04-03T03:02:34.213Z,72.79
2019-04-03T03:05:06.327Z,72.84
2019-04-03T03:07:37.737Z,73.15
2019-04-03T03:10:09.483Z,73.53
2019-04-03T03:12:42.318Z,73.77
2019-04-03T03:15:13.922Z,74.05
2019-04-03T03:17:46.219Z,73.14
2019-04-03T03:20:22.234Z,73.44
2019-04-03T03:22:55.334Z,73.53
2019-04-03T03:25:27.454Z,73.82
2019-04-03T03:27:59.920Z,73.77
2019-04-03T03:30:41.055Z,72.86
2019-04-03T03:33:33.463Z,71.83
2019-04-03T03:35:45.276Z,72.00
2019-04-03T03:38:16.988Z,71.61
2019-04-03T03:40:49.425Z,71.67
2019-04-03T03:43:22.531Z,72.03
2019-04-03T03:45:54.816Z,72.19
2019-04-03T03:48:26.629Z,72.25
2019-04-03T03:51:00.952Z,72.30
2019-04-03T03:53:34.508Z,73.19
2019-04-03T03:56:06.666Z,73.92
2019-04-03T03:58:38.946Z,74.66
2019-04-03T04:01:10.821Z,75.39
2019-04-03T04:03:42.527Z,75.41
2019-04-03T04:06:14.779Z,74.96
2019-04-03T04:08:46.241Z,75.38
2019-04-03T04:11:17.825Z,74.46
2019-04-03T04:13:50.023Z,74.04
2019-04-03T04:16:23.163Z,73.96
2019-04-03T04:18:57.264Z,73.97
2019-04-03T04:21:28.091Z,73.49
2019-04-03T04:23:59.803Z,74.01
2019-04-03T04:26:32.369Z,74.44
2019-04-03T04:29:04.490Z,74.80
2019-04-03T04:31:36.142Z,73.88
2019-04-03T04:34:07.687Z,73.28
2019-04-03T04:36:39.356Z,74.45
2019-04-03T04:39:10.907Z,75.13
2019-04-03T04:41:43.200Z,75.02
2019-04-03T04:44:15.191Z,74.93
2019-04-03T04:46:46.774Z,75.18
2019-04-03T04:49:18.332Z,74.87
2019-04-03T04:51:50.430Z,74.77
2019-04-03T04:54:21.895Z,73.37
2019-04-03T04:56:53.437Z,72.65
2019-04-03T04:59:25.149Z,72.68
2019-04-03T05:01:56.528Z,72.86
2019-04-03T05:04:28.040Z,73.62
2019-04-03T05:07:00.181Z,73.45
2019-04-03T05:09:34.629Z,73.37
2019-04-03T05:12:05.511Z,73.35
2019-04-03T05:14:37.022Z,73.28
2019-04-03T05:17:09.908Z,72.88
2019-04-03T05:19:41.357Z,72.59
2019-04-03T05:22:13.067Z,72.23
2019-04-03T05:24:44.848Z,71.83
2019-04-03T05:27:16.944Z,72.26
2019-04-03T05:29:48.753Z,71.87
2019-04-03T05:32:20.321Z,72.56
2019-04-03T05:34:51.755Z,72.09
2019-04-03T05:37:24.563Z,72.11
2019-04-03T05:39:56.202Z,72.49
2019-04-03T05:42:29.223Z,71.85
2019-04-03T05:45:03.639Z,71.26
2019-04-03T05:47:35.110Z,71.83
2019-04-03T05:50:07.203Z,70.71
2019-04-03T05:52:38.749Z,71.01
2019-04-03T05:55:10.795Z,70.76
2019-04-03T05:57:45.677Z,70.36
2019-04-03T06:00:17.159Z,70.39
2019-04-03T06:02:48.649Z,69.92
2019-04-03T06:05:20.361Z,69.25
2019-04-03T06:07:51.983Z,68.83
2019-04-03T06:10:23.680Z,68.21
2019-04-03T06:12:55.066Z,67.83
2019-04-03T06:15:27.259Z,68.66
2019-04-03T06:17:58.628Z,67.04
2019-04-03T06:20:30.321Z,67.43
2019-04-03T06:23:02.115Z,66.10
2019-04-03T06:25:33.991Z,66.84
2019-04-03T06:28:05.439Z,66.14
2019-04-03T06:30:36.950Z,66.52
2019-04-03T06:33:08.281Z,65.95
2019-04-03T06:35:39.805Z,65.57
2019-04-03T06:38:11.357Z,65.68
2019-04-03T06:40:42.915Z,66.31
2019-04-03T06:43:15.337Z,64.05
2019-04-03T06:45:47.980Z,63.28
2019-04-03T06:48:20.065Z,63.27
2019-04-03T06:50:52.044Z,63.01
2019-04-03T06:53:27.286Z,64.75
2019-04-03T06:55:57.068Z,64.68
2019-04-03T06:58:37.302Z,63.70
2019-04-03T07:01:02.300Z,64.42
2019-04-03T07:03:34.319Z,63.36
2019-04-03T07:06:06.632Z,63.33
2019-04-03T07:08:40.929Z,63.44
2019-04-03T07:11:22.819Z,62.95
2019-04-03T07:13:44.918Z,62.16
2019-04-03T07:16:16.684Z,61.19
2019-04-03T07:18:48.412Z,61.26
2019-04-03T07:21:20.699Z,60.32
2019-04-03T07:23:53.046Z,59.05
2019-04-03T07:26:24.520Z,58.74
2019-04-03T07:28:56.738Z,57.07
2019-04-03T07:31:29.590Z,57.01
2019-04-03T07:34:02.979Z,55.88
2019-04-03T07:36:34.329Z,56.46
2019-04-03T07:39:11.013Z,55.94
2019-04-03T07:41:42.608Z,56.54
2019-04-03T07:44:14.362Z,54.24
2019-04-03T07:46:46.220Z,55.45
2019-04-03T07:49:17.780Z,53.98
2019-04-03T07:51:49.828Z,52.01
2019-04-03T07:54:22.454Z,51.17
2019-04-03T07:56:56.824Z,50.07
2019-04-03T07:59:27.191Z,48.37
2019-04-03T08:01:58.672Z,50.36
2019-04-03T08:04:30.044Z,48.58
2019-04-03T08:07:01.313Z,48.56
2019-04-03T08:09:32.694Z,45.92
2019-04-03T08:12:04.593Z,46.06
2019-04-03T08:14:35.846Z,45.16
2019-04-03T08:17:07.847Z,41.19
2019-04-03T08:19:39.507Z,41.97
2019-04-03T08:22:11.559Z,41.77
2019-04-03T08:24:43.009Z,41.67
2019-04-03T08:27:14.901Z,39.58
2019-04-03T08:29:46.678Z,39.46
2019-04-03T08:32:18.418Z,40.27
2019-04-03T08:34:49.645Z,40.14
2019-04-03T08:37:29.603Z,40.28
2019-04-03T08:39:57.314Z,37.72
2019-04-03T08:42:28.616Z,39.38
2019-04-03T08:45:01.001Z,37.31
2019-04-03T08:47:32.454Z,41.45
2019-04-03T08:50:05.079Z,36.52
2019-04-03T08:52:37.096Z,36.17
2019-04-03T08:55:12.896Z,39.43
2019-04-03T08:57:45.809Z,37.69
2019-04-03T09:00:17.329Z,36.51
2019-04-03T09:02:49.097Z,36.90
2019-04-03T09:05:20.623Z,36.69
2019-04-03T09:07:51.880Z,37.18
2019-04-03T09:10:23.607Z,37.32
2019-04-03T09:12:55.245Z,36.55
2019-04-03T09:15:28.265Z,35.03
2019-04-03T09:17:59.692Z,37.17
2019-04-03T09:20:30.917Z,35.39
2019-04-03T09:23:02.350Z,35.63
2019-04-03T09:25:33.816Z,35.51
2019-04-03T09:28:06.210Z,35.65
2019-04-03T09:30:37.968Z,36.05
2019-04-03T09:33:09.337Z,36.39
2019-04-03T09:35:42.810Z,36.82
2019-04-03T09:38:14.497Z,33.79
2019-04-03T09:40:48.330Z,34.35
2019-04-03T09:43:20.104Z,33.69
2019-04-03T09:45:52.338Z,33.99
2019-04-03T09:48:25.006Z,33.56
2019-04-03T09:50:56.522Z,35.17
2019-04-03T09:53:27.901Z,31.92
2019-04-03T09:55:59.249Z,32.96
2019-04-03T09:58:34.577Z,32.39
2019-04-03T10:01:05.245Z,31.50
2019-04-03T10:03:36.558Z,31.54
2019-04-03T10:06:07.990Z,33.17
2019-04-03T10:08:41.069Z,30.68
2019-04-03T10:11:14.917Z,31.58
2019-04-03T10:13:46.480Z,30.93
2019-04-03T10:16:18.030Z,31.83
2019-04-03T10:18:49.410Z,32.78
2019-04-03T10:21:21.323Z,32.67
2019-04-03T10:23:52.793Z,31.63
2019-04-03T10:26:24.393Z,32.59
2019-04-03T10:28:55.936Z,30.36
2019-04-03T10:31:27.373Z,31.79
2019-04-03T10:33:58.611Z,31.58
2019-04-03T10:36:30.736Z,32.12
2019-04-03T10:39:02.260Z,30.38
2019-04-03T10:41:34.072Z,32.44
2019-04-03T10:44:06.702Z,30.54
2019-04-03T10:46:39.305Z,30.09
2019-04-03T10:49:10.735Z,30.11
2019-04-03T10:51:42.184Z,30.20
2019-04-03T10:54:13.589Z,30.21
2019-04-03T10:56:45.194Z,30.20
2019-04-03T10:59:18.413Z,28.82
2019-04-03T11:01:50.093Z,29.03
2019-04-03T11:04:21.851Z,29.75
2019-04-03T11:06:53.514Z,32.09
2019-04-03T11:09:24.896Z,30.02
2019-04-03T11:11:58.280Z,30.63
2019-04-03T11:14:29.637Z,31.02
2019-04-03T11:17:01.281Z,28.60
2019-04-03T11:19:32.829Z,27.29
2019-04-03T11:22:04.250Z,28.68
2019-04-03T11:24:39.791Z,31.20
2019-04-03T11:27:10.192Z,29.56
2019-04-03T11:29:42.914Z,29.43
2019-04-03T11:32:15.098Z,29.05
2019-04-03T11:34:48.987Z,29.25
2019-04-03T11:37:19.832Z,27.99
2019-04-03T11:40:01.927Z,29.27
2019-04-03T11:42:28.477Z,27.42
2019-04-03T11:44:57.388Z,28.29
2019-04-03T11:47:29.114Z,29.64
2019-04-03T11:50:00.362Z,29.78
2019-04-03T11:52:31.969Z,30.20
2019-04-03T11:55:03.631Z,28.72
2019-04-03T11:57:35.378Z,29.52
2019-04-03T12:00:13.785Z,27.78
2019-04-03T12:02:45.435Z,27.70
2019-04-03T12:05:21.014Z,27.37
2019-04-03T12:07:52.256Z,27.30
2019-04-03T12:10:25.518Z,27.29
2019-04-03T12:12:57.152Z,28.17
2019-04-03T12:15:29.201Z,27.52
2019-04-03T12:18:01.671Z,28.63
2019-04-03T12:20:34.180Z,29.64
2019-04-03T12:23:05.525Z,29.13
2019-04-03T12:25:39.546Z,30.63
2019-04-03T12:28:10.971Z,29.25
2019-04-03T12:30:42.588Z,27.56
2019-04-03T12:33:14.316Z,26.44
2019-04-03T12:35:46.192Z,25.84
2019-04-03T12:38:20.129Z,27.19
2019-04-03T12:40:51.749Z,27.02
2019-04-03T12:43:23.116Z,26.75
2019-04-03T12:45:56.152Z,27.48
2019-04-03T12:48:28.685Z,27.52
2019-04-03T12:51:00.300Z,27.68
2019-04-03T12:53:31.848Z,27.84
2019-04-03T12:56:03.304Z,26.12
2019-04-03T12:58:36.405Z,26.36
2019-04-03T13:01:10.798Z,27.58
2019-04-03T13:03:41.351Z,27.63
2019-04-03T13:06:12.602Z,26.22
2019-04-03T13:08:44.258Z,25.92
2019-04-03T13:11:18.677Z,26.21
2019-04-03T13:13:48.680Z,25.49
2019-04-03T13:16:22.247Z,25.25
2019-04-03T13:18:53.136Z,26.13
2019-04-03T13:21:24.486Z,25.31
2019-04-03T13:23:55.769Z,25.35
2019-04-03T13:26:27.320Z,25.32
2019-04-03T13:28:59.083Z,25.81
2019-04-03T13:31:30.503Z,26.15
2019-04-03T13:34:02.507Z,27.18
2019-04-03T13:36:33.865Z,27.55
2019-04-03T13:39:07.866Z,28.81
2019-04-03T13:41:41.659Z,30.35
2019-04-03T13:44:12.348Z,28.38
2019-04-03T13:46:44.190Z,27.83
2019-04-03T13:49:18.449Z,28.22
2019-04-03T13:51:48.903Z,27.51
2019-04-03T13:54:20.608Z,27.35
2019-04-03T13:56:53.235Z,29.42
2019-04-03T13:59:26.571Z,28.30
2019-04-03T14:01:58.585Z,28.15
2019-04-03T14:04:30.657Z,27.62
2019-04-03T14:07:03.446Z,27.91
2019-04-03T14:09:36.379Z,27.15
2019-04-03T14:12:07.889Z,28.59
2019-04-03T14:14:39.625Z,28.36
2019-04-03T14:17:13.621Z,28.25
2019-04-03T14:19:48.434Z,28.69
2019-04-03T14:22:17.828Z,29.03
2019-04-03T14:24:52.158Z,29.14
2019-04-03T14:27:26.770Z,30.47
2019-04-03T14:29:58.500Z,29.64
2019-04-03T14:32:29.009Z,31.10
2019-04-03T14:35:10.279Z,30.00
2019-04-03T14:37:34.058Z,30.75
2019-04-03T14:40:06.660Z,30.03
2019-04-03T14:42:38.628Z,30.85
2019-04-03T14:45:14.441Z,30.49
2019-04-03T14:47:45.736Z,30.38
2019-04-03T14:50:17.332Z,30.20
2019-04-03T14:52:49.506Z,30.49
2019-04-03T14:55:22.950Z,30.00
2019-04-03T14:57:55.819Z,30.38
2019-04-03T15:00:30.865Z,29.78
2019-04-03T15:03:03.897Z,29.94
2019-04-03T15:05:34.353Z,30.39
2019-04-03T15:08:06.240Z,30.38
2019-04-03T15:10:37.810Z,30.91
2019-04-03T15:13:12.632Z,30.72
2019-04-03T15:15:42.730Z,31.67
2019-04-03T15:18:14.230Z,30.47
2019-04-03T15:20:48.697Z,29.46
2019-04-03T15:23:19.218Z,30.51
2019-04-03T15:25:52.756Z,30.73
2019-04-03T15:28:24.036Z,30.74
2019-04-03T15:30:55.858Z,31.53
2019-04-03T15:33:27.454Z,31.13
2019-04-03T15:35:59.191Z,30.54
2019-04-03T15:38:30.725Z,31.64
2019-04-03T15:41:03.496Z,31.74
2019-04-03T15:43:34.962Z,31.94
2019-04-03T15:46:06.537Z,31.24
2019-04-03T15:48:39.979Z,32.18
2019-04-03T15:51:11.438Z,33.26
2019-04-03T15:53:43.845Z,32.10
2019-04-03T15:56:16.114Z,33.07
2019-04-03T15:58:49.504Z,32.35
2019-04-03T16:01:20.808Z,31.67
2019-04-03T16:03:52.432Z,32.12
2019-04-03T16:06:23.953Z,31.84
2019-04-03T16:08:59.933Z,31.45
2019-04-03T16:11:49.893Z,31.56
2019-04-03T16:14:21.425Z,31.74
2019-04-03T16:16:53.014Z,32.05
2019-04-03T16:19:24.778Z,32.59
2019-04-03T16:21:58.180Z,32.90
2019-04-03T16:24:30.161Z,33.11
2019-04-03T16:27:02.186Z,33.40
2019-04-03T16:29:33.726Z,34.66
2019-04-03T16:32:05.745Z,33.02
2019-04-03T16:34:40.046Z,33.47
2019-04-03T16:37:10.635Z,34.33
2019-04-03T16:39:42.321Z,33.41
2019-04-03T16:42:15.611Z,34.59
2019-04-03T16:44:48.084Z,33.52
2019-04-03T16:47:20.770Z,34.02
2019-04-03T16:49:54.938Z,34.41
2019-04-03T16:52:26.664Z,33.94
2019-04-03T16:54:59.061Z,34.36
2019-04-03T16:57:31.526Z,33.87
2019-04-03T17:00:02.943Z,34.06
2019-04-03T17:02:35.697Z,33.08
2019-04-03T17:05:10.479Z,30.02
2019-04-03T17:07:41.401Z,29.66
2019-04-03T17:10:13.979Z,28.92
2019-04-03T17:12:46.270Z,28.88
2019-04-03T17:15:19.058Z,28.88
2019-04-03T17:17:50.914Z,28.77
2019-04-03T17:20:24.240Z,28.97
2019-04-03T17:22:56.165Z,28.48
2019-04-03T17:25:38.224Z,29.43
2019-04-03T17:28:08.002Z,28.92
2019-04-03T17:30:34.687Z,29.26
2019-04-03T17:33:06.458Z,28.71
2019-04-03T17:35:38.866Z,29.50
2019-04-03T17:38:10.242Z,29.51
2019-04-03T17:40:41.811Z,30.04
2019-04-03T17:43:13.926Z,29.98
2019-04-03T17:45:46.970Z,30.26
2019-04-03T17:48:18.573Z,30.23
2019-04-03T17:50:50.102Z,30.60
2019-04-03T17:53:21.970Z,30.51
2019-04-03T17:55:53.322Z,30.95
2019-04-03T17:58:24.852Z,31.30
2019-04-03T18:00:56.310Z,31.62
2019-04-03T18:03:27.749Z,32.01
2019-04-03T18:05:59.178Z,31.77
2019-04-03T18:08:32.670Z,31.40
2019-04-03T18:11:05.086Z,31.22
2019-04-03T18:13:36.486Z,31.47
2019-04-03T18:16:08.438Z,31.20
2019-04-03T18:18:40.141Z,31.60
2019-04-03T18:21:13.035Z,31.60
2019-04-03T18:23:45.608Z,32.21
2019-04-03T18:26:17.186Z,31.85
2019-04-03T18:28:48.597Z,31.89
2019-04-03T18:31:20.284Z,31.47
2019-04-03T18:33:51.700Z,32.06
2019-04-03T18:36:23.280Z,31.82
2019-04-03T18:38:54.698Z,32.38
2019-04-03T18:41:26.061Z,31.88
2019-04-03T18:43:57.557Z,31.88
2019-04-03T18:46:32.499Z,32.14
2019-04-03T18:49:02.455Z,32.21
2019-04-03T18:51:36.453Z,32.34
2019-04-03T18:54:07.225Z,33.11
2019-04-03T18:56:38.539Z,33.13
2019-04-03T18:59:10.071Z,33.30
2019-04-03T19:01:41.624Z,33.38
2019-04-03T19:04:13.495Z,33.03
2019-04-03T19:06:45.405Z,33.54
2019-04-03T19:09:17.201Z,33.24
2019-04-03T19:11:51.321Z,33.03
2019-04-03T19:14:27.637Z,33.41
2019-04-03T19:16:56.601Z,32.50
2019-04-03T19:19:29.778Z,33.29
2019-04-03T19:22:01.173Z,33.53
2019-04-03T19:24:32.896Z,33.47
2019-04-03T19:27:04.822Z,33.81
2019-04-03T19:29:36.368Z,34.36
2019-04-03T19:32:07.861Z,37.10
2019-04-03T19:34:39.498Z,40.93
2019-04-03T19:37:11.305Z,47.75
2019-04-03T19:39:42.981Z,50.54
2019-04-03T19:42:14.597Z,52.67
2019-04-03T19:44:47.189Z,54.99
2019-04-03T19:47:19.175Z,57.43
2019-04-03T19:49:50.778Z,59.26
2019-04-03T19:52:22.195Z,61.10
2019-04-03T19:54:53.774Z,62.84
2019-04-03T19:57:26.803Z,63.24
2019-04-03T19:59:58.380Z,63.21
2019-04-03T20:02:29.921Z,64.30
2019-04-03T20:05:01.340Z,64.82
2019-04-03T20:07:33.145Z,65.68
2019-04-03T20:10:05.785Z,65.35
2019-04-03T20:12:37.697Z,65.06
2019-04-03T20:15:11.331Z,65.53
2019-04-03T20:17:42.843Z,65.51
2019-04-03T20:20:15.778Z,65.82
2019-04-03T20:22:47.319Z,65.65
2019-04-03T20:25:19.956Z,64.90
2019-04-03T20:27:52.448Z,66.13
2019-04-03T20:30:24.246Z,65.74
2019-04-03T20:32:55.916Z,66.63
2019-04-03T20:35:27.503Z,66.45
2019-04-03T20:37:59.772Z,65.84
2019-04-03T20:40:32.099Z,65.91
2019-04-03T20:43:04.071Z,66.96
2019-04-03T20:45:36.172Z,67.08
2019-04-03T20:48:07.670Z,66.27
2019-04-03T20:50:38.996Z,66.66
2019-04-03T20:53:10.370Z,67.14
2019-04-03T20:55:42.227Z,66.28
2019-04-03T20:58:13.613Z,66.10
2019-04-03T21:00:45.064Z,66.42
2019-04-03T21:03:16.904Z,66.42
2019-04-03T21:05:48.881Z,66.24
2019-04-03T21:08:20.828Z,66.36
2019-04-03T21:10:52.383Z,66.61
2019-04-03T21:13:23.819Z,66.79
2019-04-03T21:15:55.319Z,66.47
2019-04-03T21:18:27.183Z,66.14
2019-04-03T21:21:01.459Z,66.53
2019-04-03T21:23:33.522Z,65.90
2019-04-03T21:26:07.296Z,65.93
2019-04-03T21:28:40.834Z,67.26
2019-04-03T21:31:12.111Z,66.78
2019-04-03T21:33:45.027Z,66.61
2019-04-03T21:36:16.654Z,66.63
2019-04-03T21:38:48.054Z,67.21
2019-04-03T21:41:20.775Z,67.16
2019-04-03T21:43:55.492Z,66.81
2019-04-03T21:46:27.220Z,66.45
2019-04-03T21:48:58.821Z,67.76
2019-04-03T21:51:30.217Z,67.86
2019-04-03T21:54:01.732Z,67.26
2019-04-03T21:56:33.419Z,67.57
2019-04-03T21:59:06.257Z,67.83
2019-04-03T22:01:37.843Z,68.66
2019-04-03T22:04:09.320Z,68.10
2019-04-03T22:06:40.768Z,68.73
2019-04-03T22:09:13.733Z,69.37
2019-04-03T22:11:45.333Z,68.48
2019-04-03T22:14:16.963Z,68.63
2019-04-03T22:16:50.593Z,68.88
2019-04-03T22:19:21.576Z,68.71
2019-04-03T22:21:53.030Z,69.17
2019-04-03T22:24:24.403Z,69.32
2019-04-03T22:26:55.870Z,69.51
2019-04-03T22:29:27.260Z,68.99
2019-04-03T22:31:58.548Z,69.59
2019-04-03T22:34:30.550Z,68.97
2019-04-03T22:37:03.882Z,69.32
2019-04-03T22:39:34.964Z,69.01
2019-04-03T22:42:06.357Z,69.68
2019-04-03T22:44:37.635Z,70.08
2019-04-03T22:47:08.850Z,69.15
2019-04-03T22:49:40.719Z,69.14
2019-04-03T22:52:12.003Z,69.40
2019-04-03T22:54:44.375Z,68.93
2019-04-03T22:57:15.920Z,69.02
2019-04-03T22:59:47.651Z,69.73
2019-04-03T23:02:18.977Z,69.85
2019-04-03T23:04:50.824Z,70.10
2019-04-03T23:07:22.110Z,71.06
2019-04-03T23:09:56.471Z,71.07
2019-04-03T23:12:26.555Z,71.94
2019-04-03T23:14:58.096Z,70.91
2019-04-03T23:17:29.447Z,71.88
2019-04-03T23:20:00.768Z,72.05
2019-04-03T23:22:32.471Z,71.29
2019-04-03T23:25:04.148Z,70.86
2019-04-03T23:27:35.629Z,71.10
2019-04-03T23:30:10.054Z,70.71
2019-04-03T23:32:41.045Z,70.58
2019-04-03T23:35:12.515Z,70.86
2019-04-03T23:37:44.533Z,70.88
2019-04-03T23:40:16.439Z,71.08
2019-04-03T23:42:47.731Z,71.05
2019-04-03T23:45:20.411Z,70.96
2019-04-03T23:47:52.210Z,70.84
2019-04-03T23:50:23.705Z,70.02
2019-04-03T23:52:55.656Z,71.13
2019-04-03T23:55:27.365Z,71.05
2019-04-03T23:57:59.341Z,70.99
